sensor_id;sensor_type;location;lat;lon;timestamp;pressure;altitude;pressure_sealevel;temperature;humidity
50368;BME280;36281;34.132;-118.018;2023-07-31T00:00:53;99553.97;;;34.64;41.15
50368;BME280;36281;34.132;-118.018;2023-07-31T00:03:22;99542.22;;;34.67;40.24
50368;BME280;36281;34.132;-118.018;2023-07-31T00:05:53;99549.28;;;34.68;41.01
50368;BME280;36281;34.132;-118.018;2023-07-31T00:08:22;99546.50;;;34.64;40.96
50368;BME280;36281;34.132;-118.018;2023-07-31T00:10:52;99537.06;;;34.65;40.68
50368;BME280;36281;34.132;-118.018;2023-07-31T00:13:21;99537.88;;;34.66;40.00
50368;BME280;36281;34.132;-118.018;2023-07-31T00:15:50;99538.22;;;34.61;39.89
50368;BME280;36281;34.132;-118.018;2023-07-31T00:18:19;99538.22;;;34.61;40.20
50368;BME280;36281;34.132;-118.018;2023-07-31T00:20:48;99525.63;;;34.56;39.88
50368;BME280;36281;34.132;-118.018;2023-07-31T00:23:19;99527.56;;;34.56;40.56
50368;BME280;36281;34.132;-118.018;2023-07-31T00:25:48;99528.41;;;34.60;40.39
50368;BME280;36281;34.132;-118.018;2023-07-31T00:28:17;99520.19;;;34.63;40.93
50368;BME280;36281;34.132;-118.018;2023-07-31T00:30:46;99520.16;;;34.60;39.88
50368;BME280;36281;34.132;-118.018;2023-07-31T00:33:15;99520.16;;;34.56;39.59
50368;BME280;36281;34.132;-118.018;2023-07-31T00:35:44;99517.34;;;34.53;40.20
50368;BME280;36281;34.132;-118.018;2023-07-31T00:38:13;99504.31;;;34.46;39.87
50368;BME280;36281;34.132;-118.018;2023-07-31T00:40:46;99521.28;;;34.52;39.75
50368;BME280;36281;34.132;-118.018;2023-07-31T00:43:15;99517.34;;;34.53;39.94
50368;BME280;36281;34.132;-118.018;2023-07-31T00:45:44;99520.09;;;34.53;39.21
50368;BME280;36281;34.132;-118.018;2023-07-31T00:48:13;99517.31;;;34.49;39.51
50368;BME280;36281;34.132;-118.018;2023-07-31T00:50:42;99527.94;;;34.47;39.92
50368;BME280;36281;34.132;-118.018;2023-07-31T00:53:11;99524.75;;;34.45;39.32
50368;BME280;36281;34.132;-118.018;2023-07-31T00:55:43;99516.81;;;34.40;39.68
50368;BME280;36281;34.132;-118.018;2023-07-31T00:58:13;99525.03;;;34.33;39.85
50368;BME280;36281;34.132;-118.018;2023-07-31T01:00:42;99520.22;;;34.26;39.22
50368;BME280;36281;34.132;-118.018;2023-07-31T01:03:11;99522.19;;;34.22;39.52
50368;BME280;36281;34.132;-118.018;2023-07-31T01:05:46;99524.50;;;34.20;39.55
50368;BME280;36281;34.132;-118.018;2023-07-31T01:08:24;99526.84;;;34.18;40.26
50368;BME280;36281;34.132;-118.018;2023-07-31T01:11:00;99522.06;;;34.11;39.96
50368;BME280;36281;34.132;-118.018;2023-07-31T01:13:29;99533.44;;;34.10;39.98
50368;BME280;36281;34.132;-118.018;2023-07-31T01:15:58;99533.78;;;34.05;39.88
50368;BME280;36281;34.132;-118.018;2023-07-31T01:18:27;99527.84;;;33.99;40.04
50368;BME280;36281;34.132;-118.018;2023-07-31T01:21:17;99532.88;;;33.93;40.52
50368;BME280;36281;34.132;-118.018;2023-07-31T01:24:17;99535.19;;;33.91;40.19
50368;BME280;36281;34.132;-118.018;2023-07-31T01:26:56;99541.00;;;33.86;40.15
50368;BME280;36281;34.132;-118.018;2023-07-31T01:29:34;99539.00;;;33.80;40.16
50368;BME280;36281;34.132;-118.018;2023-07-31T01:32:08;99547.94;;;33.73;40.44
50368;BME280;36281;34.132;-118.018;2023-07-31T01:34:38;99538.81;;;33.62;41.16
50368;BME280;36281;34.132;-118.018;2023-07-31T01:37:08;99550.53;;;33.59;41.50
50368;BME280;36281;34.132;-118.018;2023-07-31T01:39:37;99552.38;;;33.48;41.69
50368;BME280;36281;34.132;-118.018;2023-07-31T01:42:08;99551.03;;;33.38;42.20
50368;BME280;36281;34.132;-118.018;2023-07-31T01:44:37;99556.47;;;33.34;42.37
50368;BME280;36281;34.132;-118.018;2023-07-31T01:47:06;99558.63;;;33.22;42.71
50368;BME280;36281;34.132;-118.018;2023-07-31T01:49:35;99564.09;;;33.18;42.79
50368;BME280;36281;34.132;-118.018;2023-07-31T01:52:05;99569.84;;;33.09;42.88
50368;BME280;36281;34.132;-118.018;2023-07-31T01:54:34;99567.34;;;33.01;43.39
50368;BME280;36281;34.132;-118.018;2023-07-31T01:57:07;99577.88;;;32.95;43.66
50368;BME280;36281;34.132;-118.018;2023-07-31T01:59:36;99573.75;;;32.85;43.82
50368;BME280;36281;34.132;-118.018;2023-07-31T02:02:06;99574.09;;;32.80;43.94
50368;BME280;36281;34.132;-118.018;2023-07-31T02:04:35;99587.69;;;32.73;44.08
50368;BME280;36281;34.132;-118.018;2023-07-31T02:07:04;99584.81;;;32.66;44.22
50368;BME280;36281;34.132;-118.018;2023-07-31T02:09:33;99587.38;;;32.55;44.63
50368;BME280;36281;34.132;-118.018;2023-07-31T02:12:03;99601.31;;;32.47;45.13
50368;BME280;36281;34.132;-118.018;2023-07-31T02:14:33;99605.81;;;32.35;45.09
50368;BME280;36281;34.132;-118.018;2023-07-31T02:17:02;99602.47;;;32.23;45.35
50368;BME280;36281;34.132;-118.018;2023-07-31T02:19:32;99614.81;;;32.13;45.88
50368;BME280;36281;34.132;-118.018;2023-07-31T02:22:01;99621.22;;;32.01;45.10
50368;BME280;36281;34.132;-118.018;2023-07-31T02:24:30;99621.28;;;31.85;44.86
50368;BME280;36281;34.132;-118.018;2023-07-31T02:27:00;99621.75;;;31.72;45.59
50368;BME280;36281;34.132;-118.018;2023-07-31T02:29:29;99631.00;;;31.63;45.62
50368;BME280;36281;34.132;-118.018;2023-07-31T02:32:00;99625.72;;;31.55;45.78
50368;BME280;36281;34.132;-118.018;2023-07-31T02:34:29;99632.16;;;31.47;45.78
50368;BME280;36281;34.132;-118.018;2023-07-31T02:36:58;99639.78;;;31.37;45.43
50368;BME280;36281;34.132;-118.018;2023-07-31T02:39:27;99638.75;;;31.26;45.10
50368;BME280;36281;34.132;-118.018;2023-07-31T02:41:56;99637.00;;;31.18;45.12
50368;BME280;36281;34.132;-118.018;2023-07-31T02:44:25;99642.91;;;31.04;45.75
50368;BME280;36281;34.132;-118.018;2023-07-31T02:46:54;99655.53;;;30.93;45.89
50368;BME280;36281;34.132;-118.018;2023-07-31T02:49:24;99659.84;;;30.78;46.81
50368;BME280;36281;34.132;-118.018;2023-07-31T02:51:53;99654.19;;;30.71;46.33
50368;BME280;36281;34.132;-118.018;2023-07-31T02:54:22;99646.91;;;30.63;46.66
50368;BME280;36281;34.132;-118.018;2023-07-31T02:56:51;99653.78;;;30.57;46.44
50368;BME280;36281;34.132;-118.018;2023-07-31T02:59:20;99667.38;;;30.53;46.21
50368;BME280;36281;34.132;-118.018;2023-07-31T03:01:50;99663.47;;;30.38;46.37
50368;BME280;36281;34.132;-118.018;2023-07-31T03:04:19;99666.00;;;30.31;47.30
50368;BME280;36281;34.132;-118.018;2023-07-31T03:06:49;99672.50;;;30.27;46.84
50368;BME280;36281;34.132;-118.018;2023-07-31T03:09:18;99677.41;;;30.21;47.14
50368;BME280;36281;34.132;-118.018;2023-07-31T03:11:47;99679.59;;;30.16;46.38
50368;BME280;36281;34.132;-118.018;2023-07-31T03:14:16;99683.34;;;30.11;46.81
50368;BME280;36281;34.132;-118.018;2023-07-31T03:16:45;99685.53;;;30.05;47.95
50368;BME280;36281;34.132;-118.018;2023-07-31T03:19:15;99693.19;;;30.00;47.12
50368;BME280;36281;34.132;-118.018;2023-07-31T03:21:44;99700.81;;;29.94;47.85
50368;BME280;36281;34.132;-118.018;2023-07-31T03:24:14;99708.44;;;29.88;48.54
50368;BME280;36281;34.132;-118.018;2023-07-31T03:26:43;99701.28;;;29.84;48.59
50368;BME280;36281;34.132;-118.018;2023-07-31T03:29:12;99705.72;;;29.76;47.54
50368;BME280;36281;34.132;-118.018;2023-07-31T03:31:41;99700.88;;;29.70;48.24
50368;BME280;36281;34.132;-118.018;2023-07-31T03:34:10;99703.13;;;29.68;48.52
50368;BME280;36281;34.132;-118.018;2023-07-31T03:36:39;99700.97;;;29.61;48.29
50368;BME280;36281;34.132;-118.018;2023-07-31T03:39:09;99701.22;;;29.56;49.13
50368;BME280;36281;34.132;-118.018;2023-07-31T03:41:40;99698.69;;;29.51;49.29
50368;BME280;36281;34.132;-118.018;2023-07-31T03:44:09;99694.59;;;29.45;49.36
50368;BME280;36281;34.132;-118.018;2023-07-31T03:46:37;99699.16;;;29.41;49.69
50368;BME280;36281;34.132;-118.018;2023-07-31T03:49:07;99696.66;;;29.35;50.34
50368;BME280;36281;34.132;-118.018;2023-07-31T03:51:36;99701.31;;;29.35;50.91
50368;BME280;36281;34.132;-118.018;2023-07-31T03:54:05;99705.06;;;29.30;50.55
50368;BME280;36281;34.132;-118.018;2023-07-31T03:56:36;99692.44;;;29.26;51.16
50368;BME280;36281;34.132;-118.018;2023-07-31T03:59:09;99701.78;;;29.25;50.83
50368;BME280;36281;34.132;-118.018;2023-07-31T04:01:38;99702.44;;;29.22;50.51
50368;BME280;36281;34.132;-118.018;2023-07-31T04:04:07;99706.19;;;29.17;50.93
50368;BME280;36281;34.132;-118.018;2023-07-31T04:09:11;99698.69;;;29.14;51.21
50368;BME280;36281;34.132;-118.018;2023-07-31T04:11:40;99708.34;;;29.12;51.36
50368;BME280;36281;34.132;-118.018;2023-07-31T04:14:11;99696.38;;;29.04;51.33
50368;BME280;36281;34.132;-118.018;2023-07-31T04:16:40;99706.41;;;29.00;50.97
50368;BME280;36281;34.132;-118.018;2023-07-31T04:19:09;99713.66;;;28.96;51.62
50368;BME280;36281;34.132;-118.018;2023-07-31T04:21:39;99718.31;;;28.95;51.89
50368;BME280;36281;34.132;-118.018;2023-07-31T04:24:08;99718.97;;;28.92;51.55
50368;BME280;36281;34.132;-118.018;2023-07-31T04:26:37;99718.50;;;28.90;51.86
50368;BME280;36281;34.132;-118.018;2023-07-31T04:29:07;99705.41;;;28.83;52.14
50368;BME280;36281;34.132;-118.018;2023-07-31T04:31:37;99721.31;;;28.81;52.28
50368;BME280;36281;34.132;-118.018;2023-07-31T04:34:06;99726.31;;;28.79;52.71
50368;BME280;36281;34.132;-118.018;2023-07-31T04:36:35;99727.78;;;28.77;52.82
50368;BME280;36281;34.132;-118.018;2023-07-31T04:39:05;99726.06;;;28.72;52.97
50368;BME280;36281;34.132;-118.018;2023-07-31T04:41:34;99726.06;;;28.72;53.33
50368;BME280;36281;34.132;-118.018;2023-07-31T04:44:03;99727.06;;;28.68;53.65
50368;BME280;36281;34.132;-118.018;2023-07-31T04:46:32;99729.66;;;28.64;53.52
50368;BME280;36281;34.132;-118.018;2023-07-31T04:49:03;99724.09;;;28.61;54.09
50368;BME280;36281;34.132;-118.018;2023-07-31T04:51:32;99729.41;;;28.57;54.04
50368;BME280;36281;34.132;-118.018;2023-07-31T04:54:01;99727.34;;;28.54;53.76
50368;BME280;36281;34.132;-118.018;2023-07-31T04:56:30;99731.06;;;28.49;54.15
50368;BME280;36281;34.132;-118.018;2023-07-31T04:59:00;99727.91;;;28.47;54.74
50368;BME280;36281;34.132;-118.018;2023-07-31T05:01:29;99737.56;;;28.45;54.68
50368;BME280;36281;34.132;-118.018;2023-07-31T05:03:58;99732.44;;;28.43;54.83
50368;BME280;36281;34.132;-118.018;2023-07-31T05:06:29;99747.84;;;28.39;55.32
50368;BME280;36281;34.132;-118.018;2023-07-31T05:08:58;99741.28;;;28.40;55.00
50368;BME280;36281;34.132;-118.018;2023-07-31T05:11:27;99746.59;;;28.37;54.92
50368;BME280;36281;34.132;-118.018;2023-07-31T05:13:55;99743.69;;;28.33;54.56
50368;BME280;36281;34.132;-118.018;2023-07-31T05:16:24;99702.81;;;28.00;54.72
50368;BME280;36281;34.132;-118.018;2023-07-31T05:18:54;99748.16;;;28.17;55.06
50368;BME280;36281;34.132;-118.018;2023-07-31T05:21:23;99743.84;;;28.16;55.99
50368;BME280;36281;34.132;-118.018;2023-07-31T05:23:54;99752.22;;;28.11;55.71
50368;BME280;36281;34.132;-118.018;2023-07-31T05:26:23;99735.00;;;27.98;56.54
50368;BME280;36281;34.132;-118.018;2023-07-31T05:28:52;99722.91;;;27.87;56.57
50368;BME280;36281;34.132;-118.018;2023-07-31T05:31:21;99744.28;;;27.97;57.09
50368;BME280;36281;34.132;-118.018;2023-07-31T05:33:51;99749.34;;;27.86;57.59
50368;BME280;36281;34.132;-118.018;2023-07-31T05:36:20;99740.41;;;27.77;58.15
50368;BME280;36281;34.132;-118.018;2023-07-31T05:38:49;99743.63;;;27.70;58.56
50368;BME280;36281;34.132;-118.018;2023-07-31T05:41:20;99738.06;;;27.67;58.96
50368;BME280;36281;34.132;-118.018;2023-07-31T05:43:49;99739.50;;;27.64;59.41
50368;BME280;36281;34.132;-118.018;2023-07-31T05:46:17;99739.03;;;27.62;59.73
50368;BME280;36281;34.132;-118.018;2023-07-31T05:48:47;99734.56;;;27.57;59.70
50368;BME280;36281;34.132;-118.018;2023-07-31T05:51:15;99731.91;;;27.49;59.95
50368;BME280;36281;34.132;-118.018;2023-07-31T05:53:45;99739.78;;;27.42;60.13
50368;BME280;36281;34.132;-118.018;2023-07-31T05:56:13;99735.00;;;27.30;60.41
50368;BME280;36281;34.132;-118.018;2023-07-31T05:58:44;99742.25;;;27.26;60.94
50368;BME280;36281;34.132;-118.018;2023-07-31T06:01:13;99732.81;;;27.23;61.17
50368;BME280;36281;34.132;-118.018;2023-07-31T06:03:43;99734.13;;;27.17;61.76
50368;BME280;36281;34.132;-118.018;2023-07-31T06:06:13;99736.84;;;27.17;61.80
50368;BME280;36281;34.132;-118.018;2023-07-31T06:08:42;99734.91;;;27.18;62.58
50368;BME280;36281;34.132;-118.018;2023-07-31T06:11:11;99733.16;;;27.13;63.11
50368;BME280;36281;34.132;-118.018;2023-07-31T06:13:41;99737.81;;;27.13;63.35
50368;BME280;36281;34.132;-118.018;2023-07-31T06:16:12;99729.84;;;27.08;63.32
50368;BME280;36281;34.132;-118.018;2023-07-31T06:18:42;99720.22;;;27.01;62.84
50368;BME280;36281;34.132;-118.018;2023-07-31T06:21:11;99731.91;;;27.02;63.20
50368;BME280;36281;34.132;-118.018;2023-07-31T06:23:40;99733.03;;;27.01;63.43
50368;BME280;36281;34.132;-118.018;2023-07-31T06:26:09;99740.38;;;27.00;63.21
50368;BME280;36281;34.132;-118.018;2023-07-31T06:28:38;99733.66;;;26.98;63.25
50368;BME280;36281;34.132;-118.018;2023-07-31T06:31:07;99733.50;;;26.94;63.36
50368;BME280;36281;34.132;-118.018;2023-07-31T06:33:38;99736.56;;;26.93;64.24
50368;BME280;36281;34.132;-118.018;2023-07-31T06:36:07;99741.19;;;26.92;64.21
50368;BME280;36281;34.132;-118.018;2023-07-31T06:38:36;99728.75;;;26.91;63.85
50368;BME280;36281;34.132;-118.018;2023-07-31T06:41:06;99734.66;;;26.85;63.87
50368;BME280;36281;34.132;-118.018;2023-07-31T06:43:35;99730.69;;;26.82;64.22
50368;BME280;36281;34.132;-118.018;2023-07-31T06:46:05;99739.63;;;26.83;64.32
50368;BME280;36281;34.132;-118.018;2023-07-31T06:48:37;99742.66;;;26.81;64.29
50368;BME280;36281;34.132;-118.018;2023-07-31T06:51:06;99748.41;;;26.79;64.42
50368;BME280;36281;34.132;-118.018;2023-07-31T06:53:35;99740.25;;;26.79;64.79
50368;BME280;36281;34.132;-118.018;2023-07-31T06:56:04;99738.19;;;26.76;65.02
50368;BME280;36281;34.132;-118.018;2023-07-31T06:58:33;99748.44;;;26.71;65.06
50368;BME280;36281;34.132;-118.018;2023-07-31T07:01:02;99742.69;;;26.72;64.72
50368;BME280;36281;34.132;-118.018;2023-07-31T07:03:32;99740.28;;;26.71;64.69
50368;BME280;36281;34.132;-118.018;2023-07-31T07:06:03;99734.03;;;26.70;65.05
50368;BME280;36281;34.132;-118.018;2023-07-31T07:08:32;99737.41;;;26.67;65.41
50368;BME280;36281;34.132;-118.018;2023-07-31T07:11:01;99728.47;;;26.58;65.00
50368;BME280;36281;34.132;-118.018;2023-07-31T07:13:30;99735.50;;;26.59;65.20
50368;BME280;36281;34.132;-118.018;2023-07-31T07:15:59;99736.78;;;26.53;65.14
50368;BME280;36281;34.132;-118.018;2023-07-31T07:18:28;99743.19;;;26.48;65.34
50368;BME280;36281;34.132;-118.018;2023-07-31T07:20:57;99727.81;;;26.35;65.60
50368;BME280;36281;34.132;-118.018;2023-07-31T07:23:28;99736.28;;;26.34;65.94
50368;BME280;36281;34.132;-118.018;2023-07-31T07:25:57;99743.00;;;26.27;66.76
50368;BME280;36281;34.132;-118.018;2023-07-31T07:28:26;99737.91;;;26.26;66.74
50368;BME280;36281;34.132;-118.018;2023-07-31T07:30:57;99746.84;;;26.26;66.67
50368;BME280;36281;34.132;-118.018;2023-07-31T07:33:26;99739.94;;;26.20;66.59
50368;BME280;36281;34.132;-118.018;2023-07-31T07:35:55;99740.09;;;26.15;66.68
50368;BME280;36281;34.132;-118.018;2023-07-31T07:38:29;99746.19;;;26.12;67.31
50368;BME280;36281;34.132;-118.018;2023-07-31T07:40:59;99746.81;;;26.09;67.14
50368;BME280;36281;34.132;-118.018;2023-07-31T07:43:28;99752.72;;;26.02;67.20
50368;BME280;36281;34.132;-118.018;2023-07-31T07:45:57;99748.25;;;25.98;67.75
50368;BME280;36281;34.132;-118.018;2023-07-31T07:48:26;99744.22;;;25.95;68.08
50368;BME280;36281;34.132;-118.018;2023-07-31T07:50:55;99738.81;;;25.87;68.12
50368;BME280;36281;34.132;-118.018;2023-07-31T07:53:24;99742.31;;;25.87;67.90
50368;BME280;36281;34.132;-118.018;2023-07-31T07:55:55;99745.00;;;25.78;68.28
50368;BME280;36281;34.132;-118.018;2023-07-31T07:58:24;99746.13;;;25.77;68.12
50368;BME280;36281;34.132;-118.018;2023-07-31T08:00:52;99743.41;;;25.77;68.42
50368;BME280;36281;34.132;-118.018;2023-07-31T08:03:22;99744.53;;;25.76;68.38
50368;BME280;36281;34.132;-118.018;2023-07-31T08:05:51;99751.16;;;25.70;68.68
50368;BME280;36281;34.132;-118.018;2023-07-31T08:08:20;99742.69;;;25.63;68.80
50368;BME280;36281;34.132;-118.018;2023-07-31T08:10:49;99737.44;;;25.58;69.42
50368;BME280;36281;34.132;-118.018;2023-07-31T08:13:19;99743.47;;;25.55;69.63
50368;BME280;36281;34.132;-118.018;2023-07-31T08:15:48;99729.44;;;25.53;69.59
50368;BME280;36281;34.132;-118.018;2023-07-31T08:18:18;99736.94;;;25.56;69.63
50368;BME280;36281;34.132;-118.018;2023-07-31T08:20:47;99739.66;;;25.56;69.93
50368;BME280;36281;34.132;-118.018;2023-07-31T08:23:16;99734.53;;;25.55;69.98
50368;BME280;36281;34.132;-118.018;2023-07-31T08:25:45;99744.09;;;25.52;70.29
50368;BME280;36281;34.132;-118.018;2023-07-31T08:28:15;99733.09;;;25.48;70.06
50368;BME280;36281;34.132;-118.018;2023-07-31T08:30:45;99731.31;;;25.44;70.29
50368;BME280;36281;34.132;-118.018;2023-07-31T08:33:15;99737.84;;;25.43;70.72
50368;BME280;36281;34.132;-118.018;2023-07-31T08:36:08;99739.59;;;25.39;71.14
50368;BME280;36281;34.132;-118.018;2023-07-31T08:38:45;99736.53;;;25.32;71.34
50368;BME280;36281;34.132;-118.018;2023-07-31T08:41:14;99747.84;;;25.34;71.54
50368;BME280;36281;34.132;-118.018;2023-07-31T08:43:46;99746.59;;;25.31;71.41
50368;BME280;36281;34.132;-118.018;2023-07-31T08:46:16;99746.88;;;25.30;71.45
50368;BME280;36281;34.132;-118.018;2023-07-31T08:48:46;99732.84;;;25.27;71.72
50368;BME280;36281;34.132;-118.018;2023-07-31T08:51:16;99735.06;;;25.25;72.23
50368;BME280;36281;34.132;-118.018;2023-07-31T08:53:45;99739.81;;;25.20;72.25
50368;BME280;36281;34.132;-118.018;2023-07-31T08:56:15;99737.56;;;25.13;72.89
50368;BME280;36281;34.132;-118.018;2023-07-31T08:58:46;99743.59;;;25.10;73.09
50368;BME280;36281;34.132;-118.018;2023-07-31T09:01:18;99744.25;;;25.07;73.04
50368;BME280;36281;34.132;-118.018;2023-07-31T09:03:48;99742.09;;;25.04;72.96
50368;BME280;36281;34.132;-118.018;2023-07-31T09:06:21;99738.59;;;25.04;72.78
50368;BME280;36281;34.132;-118.018;2023-07-31T09:08:53;99730.47;;;25.04;73.03
50368;BME280;36281;34.132;-118.018;2023-07-31T09:11:24;99740.00;;;25.01;72.81
50368;BME280;36281;34.132;-118.018;2023-07-31T09:13:53;99740.00;;;25.01;72.59
50368;BME280;36281;34.132;-118.018;2023-07-31T09:16:30;99742.84;;;24.96;73.04
50368;BME280;36281;34.132;-118.018;2023-07-31T09:19:01;99742.84;;;24.96;73.26
50368;BME280;36281;34.132;-118.018;2023-07-31T09:21:33;99738.06;;;24.93;73.11
50368;BME280;36281;34.132;-118.018;2023-07-31T09:24:08;99727.84;;;24.90;73.23
50368;BME280;36281;34.132;-118.018;2023-07-31T09:26:37;99726.84;;;24.86;73.77
50368;BME280;36281;34.132;-118.018;2023-07-31T09:29:07;99731.31;;;24.82;73.98
50368;BME280;36281;34.132;-118.018;2023-07-31T09:31:49;99737.81;;;24.81;74.04
50368;BME280;36281;34.132;-118.018;2023-07-31T09:34:18;99740.66;;;24.75;74.09
50368;BME280;36281;34.132;-118.018;2023-07-31T09:36:48;99733.78;;;24.69;74.30
50368;BME280;36281;34.132;-118.018;2023-07-31T09:39:17;99737.28;;;24.70;74.75
50368;BME280;36281;34.132;-118.018;2023-07-31T09:41:53;99738.38;;;24.69;74.94
50368;BME280;36281;34.132;-118.018;2023-07-31T09:44:37;99737.09;;;24.66;75.05
50368;BME280;36281;34.132;-118.018;2023-07-31T09:47:21;99744.59;;;24.69;74.88
50368;BME280;36281;34.132;-118.018;2023-07-31T09:49:53;99744.59;;;24.69;74.99
50368;BME280;36281;34.132;-118.018;2023-07-31T09:52:22;99743.00;;;24.68;74.81
50368;BME280;36281;34.132;-118.018;2023-07-31T09:54:54;99748.44;;;24.68;74.72
50368;BME280;36281;34.132;-118.018;2023-07-31T09:57:23;99746.63;;;24.64;74.53
50368;BME280;36281;34.132;-118.018;2023-07-31T09:59:54;99736.59;;;24.64;75.11
50368;BME280;36281;34.132;-118.018;2023-07-31T10:02:27;99729.78;;;24.67;75.20
50368;BME280;36281;34.132;-118.018;2023-07-31T10:04:57;99730.59;;;24.67;74.77
50368;BME280;36281;34.132;-118.018;2023-07-31T10:07:30;99727.88;;;24.67;75.09
50368;BME280;36281;34.132;-118.018;2023-07-31T10:10:00;99727.88;;;24.67;74.62
50368;BME280;36281;34.132;-118.018;2023-07-31T10:12:33;99719.56;;;24.64;75.14
50368;BME280;36281;34.132;-118.018;2023-07-31T10:15:04;99702.53;;;24.63;75.37
50368;BME280;36281;34.132;-118.018;2023-07-31T10:17:36;99706.63;;;24.61;75.33
50368;BME280;36281;34.132;-118.018;2023-07-31T10:20:07;99686.88;;;24.60;75.08
50368;BME280;36281;34.132;-118.018;2023-07-31T10:22:37;99683.50;;;24.55;75.34
50368;BME280;36281;34.132;-118.018;2023-07-31T10:25:08;99678.09;;;24.55;75.55
50368;BME280;36281;34.132;-118.018;2023-07-31T10:27:39;99681.44;;;24.52;75.62
50368;BME280;36281;34.132;-118.018;2023-07-31T10:30:11;99686.16;;;24.46;75.84
50368;BME280;36281;34.132;-118.018;2023-07-31T10:32:46;99690.09;;;24.40;76.29
50368;BME280;36281;34.132;-118.018;2023-07-31T10:35:17;99694.38;;;24.41;76.15
50368;BME280;36281;34.132;-118.018;2023-07-31T10:37:47;99702.34;;;24.37;76.24
50368;BME280;36281;34.132;-118.018;2023-07-31T10:40:17;99691.81;;;24.36;76.75
50368;BME280;36281;34.132;-118.018;2023-07-31T10:42:50;99695.59;;;24.35;76.71
50368;BME280;36281;34.132;-118.018;2023-07-31T10:45:31;99686.31;;;24.27;76.64
50368;BME280;36281;34.132;-118.018;2023-07-31T10:48:04;99688.81;;;24.23;76.81
50368;BME280;36281;34.132;-118.018;2023-07-31T10:50:37;99675.03;;;24.11;77.18
50368;BME280;36281;34.132;-118.018;2023-07-31T10:53:06;99694.03;;;24.20;77.39
50368;BME280;36281;34.132;-118.018;2023-07-31T10:55:51;99683.34;;;24.15;77.03
50368;BME280;36281;34.132;-118.018;2023-07-31T10:58:22;99689.66;;;24.10;77.79
50368;BME280;36281;34.132;-118.018;2023-07-31T11:00:58;99685.38;;;24.09;77.70
50368;BME280;36281;34.132;-118.018;2023-07-31T11:03:41;99688.19;;;24.04;78.15
50368;BME280;36281;34.132;-118.018;2023-07-31T11:06:12;99689.41;;;23.98;77.96
50368;BME280;36281;34.132;-118.018;2023-07-31T11:08:46;99684.28;;;23.96;78.26
50368;BME280;36281;34.132;-118.018;2023-07-31T11:11:16;99680.31;;;23.94;78.54
50368;BME280;36281;34.132;-118.018;2023-07-31T11:13:47;99678.72;;;23.93;78.84
50368;BME280;36281;34.132;-118.018;2023-07-31T11:16:21;99677.13;;;23.92;78.75
50368;BME280;36281;34.132;-118.018;2023-07-31T11:18:53;99672.31;;;23.89;78.83
50368;BME280;36281;34.132;-118.018;2023-07-31T11:21:24;99674.50;;;23.87;78.82
50368;BME280;36281;34.132;-118.018;2023-07-31T11:23:56;99683.13;;;23.89;78.99
50368;BME280;36281;34.132;-118.018;2023-07-31T11:26:28;99685.94;;;23.84;78.96
50368;BME280;36281;34.132;-118.018;2023-07-31T11:28:59;99683.34;;;23.79;79.07
50368;BME280;36281;34.132;-118.018;2023-07-31T11:31:28;99685.06;;;23.75;79.33
50368;BME280;36281;34.132;-118.018;2023-07-31T11:34:06;99674.22;;;23.61;79.62
50368;BME280;36281;34.132;-118.018;2023-07-31T11:36:36;99692.88;;;23.62;79.61
50368;BME280;36281;34.132;-118.018;2023-07-31T11:39:06;99690.16;;;23.62;79.92
50368;BME280;36281;34.132;-118.018;2023-07-31T11:41:36;99693.16;;;23.61;80.50
50368;BME280;36281;34.132;-118.018;2023-07-31T11:44:09;99701.56;;;23.59;80.56
50368;BME280;36281;34.132;-118.018;2023-07-31T11:46:56;99709.09;;;23.62;80.59
50368;BME280;36281;34.132;-118.018;2023-07-31T11:49:28;99701.50;;;23.64;80.85
50368;BME280;36281;34.132;-118.018;2023-07-31T11:51:58;99711.72;;;23.67;80.77
50368;BME280;36281;34.132;-118.018;2023-07-31T11:54:27;99718.19;;;23.66;80.46
50368;BME280;36281;34.132;-118.018;2023-07-31T11:56:56;99724.72;;;23.65;80.45
50368;BME280;36281;34.132;-118.018;2023-07-31T11:59:26;99740.94;;;23.65;80.77
50368;BME280;36281;34.132;-118.018;2023-07-31T12:01:55;99752.84;;;23.64;81.04
50368;BME280;36281;34.132;-118.018;2023-07-31T12:04:25;99765.59;;;23.64;81.20
50368;BME280;36281;34.132;-118.018;2023-07-31T12:06:56;99771.06;;;23.59;80.99
50368;BME280;36281;34.132;-118.018;2023-07-31T12:09:25;99775.66;;;23.58;81.38
50368;BME280;36281;34.132;-118.018;2023-07-31T12:11:55;99776.78;;;23.57;81.50
50368;BME280;36281;34.132;-118.018;2023-07-31T12:14:25;99769.34;;;23.49;81.55
50368;BME280;36281;34.132;-118.018;2023-07-31T12:16:55;99784.66;;;23.54;81.35
50368;BME280;36281;34.132;-118.018;2023-07-31T12:19:26;99789.78;;;23.55;81.77
50368;BME280;36281;34.132;-118.018;2023-07-31T12:22:00;99812.50;;;23.54;81.70
50368;BME280;36281;34.132;-118.018;2023-07-31T12:24:29;99836.13;;;23.48;82.06
50368;BME280;36281;34.132;-118.018;2023-07-31T12:26:58;99845.72;;;23.41;82.57
50368;BME280;36281;34.132;-118.018;2023-07-31T12:29:34;99868.94;;;23.42;82.94
50368;BME280;36281;34.132;-118.018;2023-07-31T12:32:21;99883.53;;;23.41;82.84
50368;BME280;36281;34.132;-118.018;2023-07-31T12:34:50;99905.97;;;23.41;83.09
50368;BME280;36281;34.132;-118.018;2023-07-31T12:37:21;99922.78;;;23.38;83.73
50368;BME280;36281;34.132;-118.018;2023-07-31T12:39:50;99925.50;;;23.38;84.06
50368;BME280;36281;34.132;-118.018;2023-07-31T12:42:19;99926.50;;;23.42;83.53
50368;BME280;36281;34.132;-118.018;2023-07-31T12:44:48;99910.00;;;23.44;83.33
50368;BME280;36281;34.132;-118.018;2023-07-31T12:47:17;99919.41;;;23.46;83.42
50368;BME280;36281;34.132;-118.018;2023-07-31T12:49:46;99923.72;;;23.47;83.85